Time;durP1;ratioP1;P1;durP2;ratioP2;P2;SDS_P1;SDS_P2;PMS_P1;PMS_P2;Temp;Humidity;BMP_temperature;BMP_pressure;BME280_temperature;BME280_humidity;BME280_pressure;Samples;Min_cycle;Max_cycle;Signal;HPM_P1;HPM_P2
2024/03/09 00:00:25;;;;;;;30.52;19.92;;;5.80;99.90;;;;;;5077422;28;20199;-75
2024/03/09 00:02:53;;;;;;;33.20;22.90;;;5.70;99.90;;;;;;5077184;28;20227;-76
2024/03/09 00:05:22;;;;;;;30.52;20.38;;;5.70;99.90;;;;;;5078814;28;20205;-75
2024/03/09 00:07:49;;;;;;;33.53;20.73;;;5.70;99.90;;;;;;5080768;28;20207;-75
2024/03/09 00:10:17;;;;;;;26.85;19.05;;;5.70;99.90;;;;;;5074731;28;20214;-75
2024/03/09 00:12:47;;;;;;;25.90;19.40;;;5.70;99.90;;;;;;5075950;28;20210;-75
2024/03/09 00:15:17;;;;;;;31.25;19.52;;;5.70;99.90;;;;;;5070656;28;20574;-75
2024/03/09 00:17:44;;;;;;;30.67;18.70;;;5.70;99.90;;;;;;5078441;28;20227;-75
2024/03/09 00:20:15;;;;;;;28.85;17.48;;;5.70;99.90;;;;;;5066956;28;20237;-75
2024/03/09 00:22:43;;;;;;;30.38;19.38;;;5.80;99.90;;;;;;5071626;28;20249;-74
2024/03/09 00:25:10;;;;;;;28.63;19.58;;;5.70;99.90;;;;;;5086019;28;20206;-74
2024/03/09 00:27:38;;;;;;;30.67;18.73;;;5.70;99.90;;;;;;5083942;28;20198;-74
2024/03/09 00:30:10;;;;;;;32.70;19.98;;;5.70;99.90;;;;;;5076992;28;20219;-74
2024/03/09 00:32:38;;;;;;;31.02;20.75;;;5.60;99.90;;;;;;5084938;28;20613;-74
2024/03/09 00:35:08;;;;;;;30.52;19.75;;;5.70;99.90;;;;;;5077890;28;20298;-74
2024/03/09 00:37:36;;;;;;;29.55;19.15;;;5.60;99.90;;;;;;5073560;28;20631;-74
2024/03/09 00:40:04;;;;;;;34.22;21.80;;;5.50;99.90;;;;;;5078877;28;20204;-75
2024/03/09 00:42:32;;;;;;;33.88;21.73;;;5.50;99.90;;;;;;5078432;28;20199;-74
2024/03/09 00:45:05;;;;;;;32.50;19.52;;;5.50;99.90;;;;;;5082321;28;20687;-74
2024/03/09 00:47:32;;;;;;;33.20;20.60;;;5.50;99.90;;;;;;5080196;28;20207;-74
2024/03/09 00:50:01;;;;;;;28.27;17.88;;;5.50;99.90;;;;;;5072593;28;20207;-75
2024/03/09 00:52:28;;;;;;;31.40;19.98;;;5.40;99.90;;;;;;5081017;28;20199;-74
2024/03/09 00:54:55;;;;;;;30.77;20.38;;;5.40;99.90;;;;;;5075145;28;20207;-75
2024/03/09 00:57:23;;;;;;;34.75;20.52;;;5.40;99.90;;;;;;5081382;28;20244;-74
2024/03/09 00:59:52;;;;;;;29.38;20.02;;;5.40;99.90;;;;;;5079938;28;20200;-74
2024/03/09 01:02:20;;;;;;;28.77;20.25;;;5.40;99.90;;;;;;5089476;28;20284;-75
2024/03/09 01:04:50;;;;;;;30.10;19.90;;;5.30;99.90;;;;;;5071401;28;20230;-74
2024/03/09 01:07:19;;;;;;;35.22;20.27;;;5.30;99.90;;;;;;5073331;28;20263;-74
2024/03/09 01:09:48;;;;;;;31.55;20.40;;;5.30;99.90;;;;;;5083513;28;20214;-74
2024/03/09 01:12:15;;;;;;;32.05;21.40;;;5.30;99.90;;;;;;5077992;28;20558;-75
2024/03/09 01:14:43;;;;;;;30.88;21.55;;;5.30;99.90;;;;;;5086828;28;20745;-75
2024/03/09 01:17:10;;;;;;;32.55;20.17;;;5.30;99.90;;;;;;5080859;28;20223;-74
2024/03/09 01:19:38;;;;;;;33.30;20.90;;;5.20;99.90;;;;;;5078504;28;20280;-75
2024/03/09 01:22:06;;;;;;;37.88;23.63;;;5.20;99.90;;;;;;5080202;28;20685;-76
2024/03/09 01:24:34;;;;;;;32.55;21.25;;;5.20;99.90;;;;;;5084156;28;20292;-75
2024/03/09 01:27:01;;;;;;;33.17;18.90;;;5.10;99.90;;;;;;5078890;28;20196;-75
2024/03/09 01:29:29;;;;;;;37.25;20.65;;;5.00;99.90;;;;;;5070182;28;20209;-75
2024/03/09 01:31:58;;;;;;;34.92;21.85;;;5.00;99.90;;;;;;5081557;28;20688;-75
2024/03/09 01:34:27;;;;;;;35.15;23.98;;;5.00;99.90;;;;;;5075708;28;20218;-77
2024/03/09 01:36:54;;;;;;;36.80;23.05;;;5.00;99.90;;;;;;5083762;28;20268;-75
2024/03/09 01:39:22;;;;;;;33.70;22.80;;;5.00;99.90;;;;;;5078822;28;21979;-75
2024/03/09 01:41:51;;;;;;;35.72;21.80;;;4.90;99.90;;;;;;5077879;28;20192;-74
2024/03/09 01:44:18;;;;;;;36.85;24.20;;;4.90;99.90;;;;;;5079223;28;20356;-73
2024/03/09 01:46:47;;;;;;;33.97;22.27;;;4.90;99.90;;;;;;5072292;28;20289;-73
2024/03/09 01:49:14;;;;;;;35.28;22.60;;;4.80;99.90;;;;;;5066330;28;20266;-74
2024/03/09 01:51:45;;;;;;;38.20;23.63;;;4.70;99.90;;;;;;5068835;28;20272;-74
2024/03/09 01:54:19;;;;;;;40.90;27.35;;;4.70;99.90;;;;;;5071101;28;20259;-75
2024/03/09 01:56:47;;;;;;;33.75;21.52;;;4.60;99.90;;;;;;5054210;28;20573;-75
2024/03/09 01:59:18;;;;;;;37.20;22.95;;;4.60;99.90;;;;;;5070212;28;20206;-73
2024/03/09 02:01:46;;;;;;;42.20;23.88;;;4.60;99.90;;;;;;5070588;28;20206;-74
2024/03/09 02:04:13;;;;;;;30.13;20.77;;;4.60;99.90;;;;;;5059749;28;20309;-74
2024/03/09 02:06:41;;;;;;;34.83;22.85;;;4.60;99.90;;;;;;5070865;28;20242;-75
2024/03/09 02:09:08;;;;;;;36.45;23.58;;;4.60;99.90;;;;;;5059708;28;20318;-74
2024/03/09 02:11:37;;;;;;;33.42;22.25;;;4.60;99.90;;;;;;5067745;28;20205;-75
2024/03/09 02:14:05;;;;;;;37.47;20.98;;;4.60;99.90;;;;;;5070737;28;20317;-74
2024/03/09 02:16:33;;;;;;;33.78;23.10;;;4.50;99.90;;;;;;5059112;28;20670;-74
2024/03/09 02:19:01;;;;;;;31.65;19.95;;;4.40;99.90;;;;;;5065406;28;20224;-74
2024/03/09 02:21:31;;;;;;;29.17;20.67;;;4.40;99.90;;;;;;5061202;28;20225;-75
2024/03/09 02:24:03;;;;;;;36.28;22.90;;;4.40;99.90;;;;;;5068872;28;20277;-73
2024/03/09 02:26:36;;;;;;;36.80;23.17;;;4.40;99.90;;;;;;5074382;28;20229;-75
2024/03/09 02:29:03;;;;;;;36.58;21.80;;;4.40;99.90;;;;;;5071443;28;20199;-74
2024/03/09 02:31:30;;;;;;;38.00;24.30;;;4.40;99.90;;;;;;5063806;28;20256;-75
2024/03/09 02:33:58;;;;;;;32.10;20.10;;;4.40;99.90;;;;;;5067362;28;20239;-73
2024/03/09 02:36:25;;;;;;;34.75;23.40;;;4.30;99.90;;;;;;5070833;28;20711;-75
2024/03/09 02:38:53;;;;;;;37.28;20.85;;;4.30;99.90;;;;;;5041581;28;20310;-73
2024/03/09 02:41:20;;;;;;;30.90;20.80;;;4.30;99.90;;;;;;5065714;28;20258;-73
2024/03/09 02:43:50;;;;;;;37.75;21.05;;;4.30;99.90;;;;;;5064429;28;20301;-75
2024/03/09 02:46:17;;;;;;;34.95;23.48;;;4.30;99.90;;;;;;5072512;28;20207;-74
2024/03/09 02:48:44;;;;;;;36.90;22.90;;;4.20;99.90;;;;;;5071386;28;20618;-75
2024/03/09 02:51:12;;;;;;;32.80;21.20;;;4.20;99.90;;;;;;5066985;28;20208;-75
2024/03/09 02:53:40;;;;;;;36.42;23.15;;;4.10;99.90;;;;;;5073116;28;20230;-74
2024/03/09 02:56:10;;;;;;;32.03;21.38;;;4.10;99.90;;;;;;5074696;28;20298;-75
2024/03/09 02:58:37;;;;;;;35.45;23.23;;;4.00;99.90;;;;;;5063508;28;20231;-74
2024/03/09 03:01:07;;;;;;;36.35;23.55;;;4.00;99.90;;;;;;5068142;28;20196;-74
2024/03/09 03:03:47;;;;;;;32.97;22.70;;;4.00;99.90;;;;;;5082018;28;20218;-74
2024/03/09 03:06:19;;;;;;;38.55;23.17;;;4.00;99.90;;;;;;5073633;28;20222;-76
2024/03/09 03:08:48;;;;;;;32.65;22.35;;;3.90;99.90;;;;;;5079962;28;20283;-74
2024/03/09 03:11:16;;;;;;;34.90;23.58;;;3.90;99.90;;;;;;5075393;28;20207;-74
2024/03/09 03:13:44;;;;;;;35.40;23.73;;;3.80;99.90;;;;;;5084463;28;20230;-75
2024/03/09 03:16:19;;;;;;;42.75;25.33;;;3.90;99.90;;;;;;5064157;28;20545;-75
2024/03/09 03:18:46;;;;;;;38.88;24.17;;;3.70;99.90;;;;;;5073873;28;20234;-74
2024/03/09 03:21:14;;;;;;;42.58;26.10;;;3.70;99.90;;;;;;5078462;28;20223;-74
2024/03/09 03:23:41;;;;;;;35.45;23.70;;;3.60;99.90;;;;;;5066591;28;20237;-75
2024/03/09 03:26:11;;;;;;;35.42;23.08;;;3.60;99.90;;;;;;5072101;28;20243;-74
2024/03/09 03:28:38;;;;;;;35.78;22.67;;;3.60;99.90;;;;;;5072714;28;20203;-73
2024/03/09 03:31:06;;;;;;;39.83;24.08;;;3.60;99.90;;;;;;5154614;22;20242;-74
2024/03/09 03:33:38;;;;;;;38.45;22.88;;;3.60;99.90;;;;;;5065695;28;20224;-74
2024/03/09 03:36:07;;;;;;;38.80;24.30;;;3.60;99.90;;;;;;5054532;28;20204;-74
2024/03/09 03:38:34;;;;;;;41.92;28.00;;;3.50;99.90;;;;;;5050881;28;20232;-74
2024/03/09 03:41:01;;;;;;;38.03;25.02;;;3.60;99.90;;;;;;5047008;28;20283;-73
2024/03/09 03:43:28;;;;;;;38.30;24.13;;;3.50;99.90;;;;;;5043598;28;20283;-74
2024/03/09 03:45:57;;;;;;;35.92;26.50;;;3.50;99.90;;;;;;5053098;28;20211;-73
2024/03/09 03:48:24;;;;;;;42.67;27.05;;;3.50;99.90;;;;;;5049071;28;20685;-74
2024/03/09 03:50:53;;;;;;;36.65;24.58;;;3.50;99.90;;;;;;5052207;28;20247;-73
2024/03/09 03:53:20;;;;;;;38.03;25.08;;;3.50;99.90;;;;;;5049333;28;20232;-74
2024/03/09 03:55:47;;;;;;;34.80;23.33;;;3.50;99.90;;;;;;5054086;28;20752;-74
2024/03/09 03:58:15;;;;;;;37.72;25.63;;;3.60;99.90;;;;;;5049755;28;20235;-75
2024/03/09 04:00:41;;;;;;;41.55;24.38;;;3.50;99.90;;;;;;5049139;28;20207;-74
2024/03/09 04:03:10;;;;;;;38.17;23.80;;;3.50;99.90;;;;;;5051020;28;20302;-74
2024/03/09 04:05:38;;;;;;;39.47;24.73;;;3.50;99.90;;;;;;5046433;28;20654;-75
2024/03/09 04:08:07;;;;;;;38.13;23.15;;;3.40;99.90;;;;;;5042932;28;20201;-74
2024/03/09 04:10:35;;;;;;;44.97;24.27;;;3.40;99.90;;;;;;5052989;28;20634;-74
2024/03/09 04:13:02;;;;;;;36.28;23.85;;;3.40;99.90;;;;;;5042930;28;20231;-74
2024/03/09 04:15:32;;;;;;;44.65;25.77;;;3.50;99.90;;;;;;5038434;28;20196;-74
2024/03/09 04:18:02;;;;;;;42.78;25.13;;;3.50;99.90;;;;;;5048494;28;20220;-74
2024/03/09 04:20:33;;;;;;;40.42;25.30;;;3.50;99.90;;;;;;5053852;28;20234;-75
2024/03/09 04:23:03;;;;;;;39.53;24.55;;;3.50;99.90;;;;;;5053148;28;20220;-73
2024/03/09 04:25:35;;;;;;;35.65;24.60;;;3.50;99.90;;;;;;5048726;28;20675;-73
2024/03/09 04:28:02;;;;;;;34.20;23.30;;;3.50;99.90;;;;;;5041251;28;20208;-74
2024/03/09 04:30:33;;;;;;;39.17;24.90;;;3.50;99.90;;;;;;5040714;28;20563;-74
2024/03/09 04:33:02;;;;;;;33.13;21.85;;;3.50;99.90;;;;;;5043411;28;20332;-74
2024/03/09 04:35:29;;;;;;;37.47;23.80;;;3.50;99.90;;;;;;5041503;28;20201;-75
2024/03/09 04:37:56;;;;;;;47.15;25.50;;;3.50;99.90;;;;;;5049617;28;20232;-75
2024/03/09 04:40:23;;;;;;;41.38;25.05;;;3.50;99.90;;;;;;5046219;28;20204;-75
2024/03/09 04:42:50;;;;;;;38.30;23.90;;;3.50;99.90;;;;;;5055838;28;20270;-74
2024/03/09 04:45:19;;;;;;;37.03;22.70;;;3.40;99.90;;;;;;5054150;28;20200;-74
2024/03/09 04:47:46;;;;;;;45.03;27.13;;;3.40;99.90;;;;;;5049977;28;20265;-76
2024/03/09 04:50:17;;;;;;;38.30;24.23;;;3.30;99.90;;;;;;5053044;28;20232;-75
2024/03/09 04:52:47;;;;;;;38.00;25.95;;;3.30;99.90;;;;;;5045196;28;20252;-74
2024/03/09 04:55:14;;;;;;;42.03;25.65;;;3.30;99.90;;;;;;5047393;28;20196;-73
2024/03/09 04:57:43;;;;;;;34.92;21.73;;;3.30;99.90;;;;;;5050692;28;20204;-74
2024/03/09 05:00:15;;;;;;;36.78;24.40;;;3.30;99.90;;;;;;5048816;28;20210;-74
2024/03/09 05:02:46;;;;;;;39.17;25.25;;;3.20;99.90;;;;;;5053367;28;20286;-75
2024/03/09 05:05:14;;;;;;;39.80;24.88;;;3.20;99.90;;;;;;5038467;28;20630;-74
2024/03/09 05:07:43;;;;;;;36.58;24.85;;;3.20;99.90;;;;;;5052365;28;20286;-74
2024/03/09 05:10:13;;;;;;;39.50;24.15;;;3.20;99.90;;;;;;5046858;28;20210;-73
2024/03/09 05:12:41;;;;;;;39.05;24.80;;;3.10;99.90;;;;;;5045694;28;20215;-74
2024/03/09 05:15:08;;;;;;;34.90;22.98;;;3.20;99.90;;;;;;5042910;28;20203;-74
2024/03/09 05:17:37;;;;;;;41.67;24.38;;;3.20;99.90;;;;;;5040194;28;20203;-73
2024/03/09 05:20:11;;;;;;;36.95;23.27;;;3.10;99.90;;;;;;5041829;28;20220;-74
2024/03/09 05:22:38;;;;;;;37.78;24.80;;;3.20;99.90;;;;;;5040856;28;20262;-74
2024/03/09 05:25:10;;;;;;;36.58;24.27;;;3.20;99.90;;;;;;5047356;28;20611;-75
2024/03/09 05:27:41;;;;;;;40.08;23.60;;;3.20;99.90;;;;;;5047790;28;20264;-75
2024/03/09 05:30:13;;;;;;;38.97;25.15;;;3.10;99.90;;;;;;5047334;28;20208;-74
2024/03/09 05:32:42;;;;;;;44.50;25.13;;;3.10;99.90;;;;;;5047589;28;20558;-74
2024/03/09 05:35:13;;;;;;;40.25;26.77;;;3.10;99.90;;;;;;5052844;28;20204;-74
2024/03/09 05:37:41;;;;;;;45.30;24.55;;;3.10;99.90;;;;;;5043772;28;20209;-74
2024/03/09 05:40:10;;;;;;;40.13;26.65;;;3.10;99.90;;;;;;5051915;28;20227;-75
2024/03/09 05:42:37;;;;;;;37.95;24.30;;;3.10;99.90;;;;;;5048243;28;20200;-74
2024/03/09 05:45:09;;;;;;;40.55;25.17;;;3.10;99.90;;;;;;5035475;28;20212;-72
2024/03/09 05:47:37;;;;;;;37.40;25.38;;;3.10;99.90;;;;;;5047512;28;20288;-75
2024/03/09 05:50:06;;;;;;;46.45;24.23;;;3.10;99.90;;;;;;5048567;28;20659;-74
2024/03/09 05:52:34;;;;;;;37.58;23.77;;;3.10;99.90;;;;;;5041113;28;20207;-74
2024/03/09 05:55:01;;;;;;;38.90;24.65;;;3.10;99.90;;;;;;5045586;28;20205;-73
2024/03/09 05:57:28;;;;;;;41.35;26.02;;;3.30;99.90;;;;;;5051164;28;20214;-75
2024/03/09 05:59:56;;;;;;;39.92;25.65;;;3.20;99.90;;;;;;5039611;28;20694;-74
2024/03/09 06:02:23;;;;;;;40.72;24.02;;;3.20;99.90;;;;;;5047240;28;20256;-74
2024/03/09 06:04:50;;;;;;;36.67;24.27;;;3.10;99.90;;;;;;5040969;28;20752;-74
2024/03/09 06:07:18;;;;;;;36.78;26.02;;;3.30;99.90;;;;;;5035466;28;20205;-74
2024/03/09 06:09:46;;;;;;;34.63;23.38;;;3.30;99.90;;;;;;5051187;28;20219;-74
2024/03/09 06:12:15;;;;;;;40.78;24.10;;;3.30;99.90;;;;;;5036147;28;20745;-75
2024/03/09 06:14:44;;;;;;;38.95;24.52;;;3.40;99.90;;;;;;5047825;28;20694;-75
2024/03/09 06:17:12;;;;;;;39.10;23.50;;;3.30;99.90;;;;;;5038762;28;20196;-74
2024/03/09 06:19:39;;;;;;;37.08;23.65;;;3.40;99.90;;;;;;5052354;28;20223;-75
2024/03/09 06:22:07;;;;;;;36.92;25.23;;;3.40;99.90;;;;;;5046017;28;20200;-75
2024/03/09 06:24:35;;;;;;;42.30;25.25;;;3.40;99.90;;;;;;5052589;28;20228;-75
2024/03/09 06:27:03;;;;;;;36.67;23.70;;;3.40;99.90;;;;;;5045800;28;20205;-75
2024/03/09 06:29:31;;;;;;;39.03;26.17;;;3.40;99.90;;;;;;5051649;28;20210;-74
2024/03/09 06:31:58;;;;;;;40.75;25.85;;;3.50;99.90;;;;;;5046693;28;20661;-75
2024/03/09 06:34:25;;;;;;;40.40;23.65;;;3.50;99.90;;;;;;5050228;28;20225;-75
2024/03/09 06:36:55;;;;;;;37.88;24.45;;;3.60;99.90;;;;;;5047036;28;20208;-74
2024/03/09 06:39:22;;;;;;;40.40;26.48;;;3.70;99.90;;;;;;5045047;28;20231;-75
2024/03/09 06:41:52;;;;;;;38.13;23.05;;;3.70;99.90;;;;;;5046113;28;20258;-75
2024/03/09 06:44:22;;;;;;;42.50;25.88;;;3.70;99.90;;;;;;5051698;28;20231;-74
2024/03/09 06:46:51;;;;;;;37.78;23.08;;;3.80;99.90;;;;;;5045618;28;20279;-75
2024/03/09 06:49:18;;;;;;;34.95;22.10;;;3.90;99.90;;;;;;5055179;28;20298;-75
2024/03/09 06:51:45;;;;;;;42.22;25.33;;;4.00;99.90;;;;;;5050972;28;20196;-73
2024/03/09 06:54:13;;;;;;;35.80;23.27;;;4.00;99.90;;;;;;5059755;28;20262;-74
2024/03/09 06:56:40;;;;;;;36.45;24.13;;;4.10;99.90;;;;;;5056174;28;20223;-74
2024/03/09 06:59:08;;;;;;;38.25;23.65;;;4.60;99.90;;;;;;5038919;28;20226;-74
2024/03/09 07:01:36;;;;;;;32.33;20.92;;;5.20;99.90;;;;;;5045703;28;20200;-74
2024/03/09 07:04:04;;;;;;;30.65;19.50;;;5.70;99.90;;;;;;5049569;28;20609;-74
2024/03/09 07:06:31;;;;;;;33.72;19.83;;;6.40;99.90;;;;;;5051884;28;20204;-75
2024/03/09 07:08:58;;;;;;;31.50;21.70;;;7.00;99.90;;;;;;5055413;28;20231;-76
2024/03/09 07:11:26;;;;;;;34.42;20.90;;;7.50;99.90;;;;;;5055986;28;20283;-73
2024/03/09 07:13:55;;;;;;;33.05;21.58;;;7.90;99.90;;;;;;5051981;28;20331;-74
2024/03/09 07:16:24;;;;;;;28.48;20.40;;;8.50;99.90;;;;;;5047481;28;20347;-74
2024/03/09 07:18:51;;;;;;;34.55;21.55;;;8.70;99.90;;;;;;5055804;28;20223;-74
2024/03/09 07:21:18;;;;;;;30.15;22.40;;;8.80;99.90;;;;;;5046699;28;20204;-74
2024/03/09 07:23:45;;;;;;;26.83;20.00;;;9.20;99.90;;;;;;5047210;28;20235;-74
2024/03/09 07:26:13;;;;;;;28.42;22.35;;;9.50;99.90;;;;;;5048041;28;20228;-74
2024/03/09 07:28:40;;;;;;;33.10;22.75;;;9.80;99.20;;;;;;5048267;28;20207;-74
2024/03/09 07:31:07;;;;;;;27.98;20.17;;;10.00;98.20;;;;;;5048299;28;20323;-74
2024/03/09 07:33:36;;;;;;;32.88;24.13;;;10.30;97.10;;;;;;5041111;28;20228;-75
2024/03/09 07:36:03;;;;;;;32.90;20.73;;;9.90;97.50;;;;;;5050166;28;20296;-74
2024/03/09 07:38:30;;;;;;;28.33;22.17;;;10.00;97.00;;;;;;5054712;28;20246;-75
2024/03/09 07:40:57;;;;;;;28.05;19.95;;;10.20;96.80;;;;;;5054758;28;20208;-75
2024/03/09 07:43:24;;;;;;;29.38;19.02;;;10.50;96.70;;;;;;5045923;28;20221;-75
2024/03/09 07:45:51;;;;;;;32.03;22.20;;;10.90;95.80;;;;;;5047829;28;20258;-75
2024/03/09 07:48:18;;;;;;;27.27;19.08;;;11.80;95.40;;;;;;5046628;28;20205;-75
2024/03/09 07:50:48;;;;;;;30.80;21.92;;;12.00;94.00;;;;;;5052298;28;20736;-76
2024/03/09 07:53:15;;;;;;;33.60;22.30;;;12.20;93.80;;;;;;5039313;28;20228;-74
2024/03/09 07:55:42;;;;;;;26.15;20.05;;;12.50;93.20;;;;;;5053986;28;20227;-75
2024/03/09 07:58:10;;;;;;;28.50;21.27;;;12.40;92.80;;;;;;5048603;28;20250;-75
2024/03/09 08:00:37;;;;;;;30.20;22.15;;;12.50;92.70;;;;;;5049873;28;20286;-76
2024/03/09 08:03:05;;;;;;;32.60;21.70;;;12.70;92.40;;;;;;5054650;28;20690;-73
2024/03/09 08:05:32;;;;;;;25.88;19.92;;;12.90;92.10;;;;;;5054210;28;20270;-73
2024/03/09 08:08:02;;;;;;;31.27;22.48;;;13.40;91.50;;;;;;5055347;28;20212;-74
2024/03/09 08:10:30;;;;;;;25.58;19.08;;;13.30;91.10;;;;;;5053957;28;20203;-75
2024/03/09 08:12:57;;;;;;;28.83;21.55;;;13.00;90.80;;;;;;5054415;28;20232;-75
2024/03/09 08:15:28;;;;;;;27.23;20.27;;;12.90;91.40;;;;;;5054035;28;20654;-74
2024/03/09 08:17:56;;;;;;;28.73;19.98;;;13.20;91.50;;;;;;5052577;28;20697;-74
2024/03/09 08:20:23;;;;;;;26.30;20.13;;;13.50;91.00;;;;;;5052188;28;20318;-74
2024/03/09 08:22:50;;;;;;;31.02;21.58;;;13.60;90.70;;;;;;5053328;28;20644;-74
2024/03/09 08:25:19;;;;;;;31.05;23.30;;;13.70;90.70;;;;;;5053499;28;20255;-74
2024/03/09 08:27:47;;;;;;;26.77;20.67;;;14.00;89.90;;;;;;5049865;28;20444;-76
2024/03/09 08:30:15;;;;;;;27.17;21.08;;;14.10;90.00;;;;;;5052045;28;20266;-73
2024/03/09 08:32:44;;;;;;;32.53;22.80;;;13.90;89.60;;;;;;5054067;28;20616;-75
2024/03/09 08:35:11;;;;;;;28.10;20.80;;;14.10;90.00;;;;;;5053478;28;20200;-73
2024/03/09 08:37:41;;;;;;;27.95;19.80;;;14.40;88.50;;;;;;5048235;28;20454;-75
2024/03/09 08:40:09;;;;;;;22.43;19.73;;;14.40;88.40;;;;;;5053280;28;20293;-75
2024/03/09 08:42:37;;;;;;;28.23;20.90;;;14.60;88.50;;;;;;5050528;28;20449;-75
2024/03/09 08:45:06;;;;;;;25.43;18.50;;;15.00;87.60;;;;;;5053806;28;20831;-74
2024/03/09 08:47:34;;;;;;;24.87;18.57;;;15.50;85.90;;;;;;5051392;28;20454;-76
2024/03/09 08:50:01;;;;;;;25.90;20.80;;;15.60;85.50;;;;;;5052104;28;20443;-74
2024/03/09 08:52:28;;;;;;;23.27;18.20;;;15.40;85.40;;;;;;5045274;28;20448;-74
2024/03/09 08:54:55;;;;;;;25.77;18.67;;;15.40;86.20;;;;;;5053045;28;20456;-75
2024/03/09 08:57:23;;;;;;;23.47;19.67;;;15.20;86.10;;;;;;5049981;28;20747;-74
2024/03/09 08:59:54;;;;;;;21.17;18.50;;;15.50;86.00;;;;;;5061175;28;20480;-73
2024/03/09 09:02:22;;;;;;;25.13;18.70;;;15.50;84.90;;;;;;5051592;28;20601;-74
2024/03/09 09:04:50;;;;;;;25.83;19.97;;;15.30;85.10;;;;;;5051116;28;20857;-72
2024/03/09 09:07:17;;;;;;;24.43;20.00;;;15.10;85.00;;;;;;5048902;28;20447;-73
2024/03/09 09:09:44;;;;;;;22.37;18.73;;;14.60;86.00;;;;;;5050818;28;20508;-75
2024/03/09 09:12:11;;;;;;;28.97;19.90;;;14.70;86.80;;;;;;5056621;28;20472;-73
2024/03/09 09:14:38;;;;;;;20.83;18.10;;;14.90;86.90;;;;;;5049347;28;20496;-74
2024/03/09 09:17:06;;;;;;;26.50;18.87;;;15.20;85.20;;;;;;5049392;28;20446;-74
2024/03/09 09:19:33;;;;;;;21.93;18.27;;;15.00;85.70;;;;;;5051088;28;20612;-74
2024/03/09 09:22:00;;;;;;;24.23;18.90;;;15.40;85.70;;;;;;5043910;28;20501;-74
2024/03/09 09:24:28;;;;;;;23.50;18.80;;;15.80;84.40;;;;;;5051549;28;20464;-73
2024/03/09 09:26:58;;;;;;;22.87;17.40;;;15.80;83.90;;;;;;5041553;28;20542;-75
2024/03/09 09:29:28;;;;;;;21.97;18.80;;;15.50;83.70;;;;;;5044899;28;20452;-74
2024/03/09 09:31:55;;;;;;;22.93;18.00;;;15.50;84.20;;;;;;5050256;28;21265;-74
2024/03/09 09:35:02;;;;;;;22.00;17.33;;;15.30;84.00;;;;;;5064864;23;20481;-81
2024/03/09 09:48:52;;;;;;;24.08;16.60;;;14.80;85.10;;;;;;5069245;28;20495;-86
2024/03/09 10:04:26;;;;;;;20.40;17.50;;;14.60;85.60;;;;;;5020838;28;20443;-82
2024/03/09 10:30:46;;;;;;;22.73;17.77;;;14.40;86.40;;;;;;5090390;22;20506;-74
2024/03/09 10:33:15;;;;;;;21.55;16.08;;;14.40;85.90;;;;;;5096098;28;20274;-74
2024/03/09 10:35:45;;;;;;;23.20;18.30;;;14.40;86.70;;;;;;5093845;28;20202;-74
2024/03/09 10:38:13;;;;;;;22.30;16.63;;;14.20;87.00;;;;;;5091151;28;20203;-74
2024/03/09 10:40:41;;;;;;;21.05;17.85;;;14.20;87.00;;;;;;5093929;28;20275;-74
2024/03/09 10:43:11;;;;;;;28.30;17.53;;;14.20;86.60;;;;;;5092330;28;20230;-74
2024/03/09 10:45:40;;;;;;;21.43;16.20;;;14.20;87.10;;;;;;5094063;28;20860;-74
2024/03/09 10:48:09;;;;;;;22.33;15.98;;;14.00;87.00;;;;;;5096148;28;20445;-73
2024/03/09 10:50:43;;;;;;;20.20;16.45;;;13.40;87.70;;;;;;5092391;28;20190;-73
2024/03/09 10:53:26;;;;;;;22.67;17.08;;;13.00;89.30;;;;;;5095490;28;20285;-73
2024/03/09 10:55:56;;;;;;;20.40;17.73;;;12.40;90.00;;;;;;5073347;28;20198;-72
2024/03/09 10:58:25;;;;;;;22.55;17.38;;;12.10;90.60;;;;;;5096535;28;20282;-76
2024/03/09 11:00:53;;;;;;;18.38;14.95;;;12.00;90.80;;;;;;5103010;28;20222;-75
2024/03/09 11:03:23;;;;;;;22.17;17.63;;;11.90;91.00;;;;;;5100465;28;20687;-73
2024/03/09 11:05:53;;;;;;;24.33;16.63;;;11.50;91.30;;;;;;5092406;28;20264;-75
2024/03/09 11:08:21;;;;;;;20.70;15.75;;;11.50;91.40;;;;;;5096350;28;20226;-74
2024/03/09 11:10:49;;;;;;;24.48;17.15;;;11.40;91.80;;;;;;5096169;28;20190;-74
2024/03/09 11:13:18;;;;;;;26.00;18.50;;;11.30;92.00;;;;;;5105941;28;20217;-75
2024/03/09 11:15:50;;;;;;;24.77;15.57;;;11.20;92.30;;;;;;5099955;28;20660;-73
2024/03/09 11:18:17;;;;;;;28.42;18.38;;;11.30;92.30;;;;;;5097224;28;20285;-76
2024/03/09 11:20:54;;;;;;;23.77;17.13;;;11.40;92.40;;;;;;5103339;28;20244;-76
2024/03/09 11:23:23;;;;;;;20.10;16.52;;;11.70;92.70;;;;;;5102931;28;20253;-75
2024/03/09 11:25:53;;;;;;;22.83;17.17;;;11.80;92.20;;;;;;5101796;28;20252;-75
2024/03/09 11:28:27;;;;;;;22.48;16.98;;;11.80;92.20;;;;;;5096478;28;20195;-74
2024/03/09 11:31:00;;;;;;;19.80;16.70;;;11.90;92.30;;;;;;5093593;28;20564;-74
2024/03/09 11:33:34;;;;;;;22.65;17.88;;;11.90;92.10;;;;;;5093745;28;20226;-75
2024/03/09 11:36:09;;;;;;;20.85;17.50;;;11.70;92.30;;;;;;5092055;28;20199;-76
2024/03/09 11:38:39;;;;;;;18.83;15.52;;;11.60;92.60;;;;;;5097312;28;20276;-75
2024/03/09 11:41:06;;;;;;;20.15;16.17;;;11.50;92.50;;;;;;5090283;28;20297;-77
2024/03/09 11:43:33;;;;;;;20.70;16.92;;;11.30;92.80;;;;;;5093754;28;20695;-76
2024/03/09 11:46:00;;;;;;;24.50;17.00;;;11.20;93.00;;;;;;5087518;28;20206;-76
2024/03/09 11:48:27;;;;;;;21.98;16.63;;;11.40;93.10;;;;;;5092272;28;20203;-76
2024/03/09 11:50:54;;;;;;;21.40;16.85;;;11.50;92.80;;;;;;5080998;28;20223;-75
2024/03/09 11:53:23;;;;;;;24.83;16.35;;;11.30;92.60;;;;;;5092198;28;20637;-75
2024/03/09 11:55:50;;;;;;;23.48;16.40;;;11.10;92.90;;;;;;5097100;28;20267;-75
2024/03/09 11:58:20;;;;;;;22.88;18.02;;;10.90;93.00;;;;;;5084212;28;20309;-74
2024/03/09 12:00:47;;;;;;;24.63;17.27;;;10.90;93.30;;;;;;5093946;28;20251;-74
2024/03/09 12:03:17;;;;;;;20.05;16.52;;;11.10;93.30;;;;;;5099656;28;20257;-77
2024/03/09 12:05:44;;;;;;;20.13;16.98;;;11.10;93.20;;;;;;5096606;28;20251;-77
2024/03/09 12:08:12;;;;;;;21.88;15.52;;;11.10;93.10;;;;;;5096922;28;20231;-77
2024/03/09 12:10:42;;;;;;;22.08;16.73;;;11.20;93.20;;;;;;5090280;28;20198;-77
2024/03/09 12:13:09;;;;;;;24.58;18.45;;;11.20;93.40;;;;;;5099849;28;20626;-78
2024/03/09 12:15:36;;;;;;;22.67;17.15;;;11.30;93.30;;;;;;5082964;28;20195;-75
2024/03/09 12:18:05;;;;;;;27.80;19.88;;;11.20;93.20;;;;;;5089493;28;20675;-77
2024/03/09 12:20:32;;;;;;;26.60;19.83;;;11.20;93.50;;;;;;5090259;28;20268;-77
2024/03/09 12:22:59;;;;;;;22.70;18.30;;;11.10;93.40;;;;;;5094291;28;20311;-76
2024/03/09 12:25:26;;;;;;;25.30;18.48;;;11.30;93.50;;;;;;5089960;28;20302;-78
2024/03/09 12:27:55;;;;;;;21.70;18.15;;;11.40;93.20;;;;;;5088487;28;20241;-76
2024/03/09 12:30:23;;;;;;;23.83;19.17;;;11.30;93.20;;;;;;5099271;28;20275;-78
2024/03/09 12:32:52;;;;;;;23.63;18.33;;;11.30;93.40;;;;;;5093470;28;20695;-77
2024/03/09 12:35:19;;;;;;;24.45;18.42;;;11.30;93.40;;;;;;5092144;28;20219;-77
2024/03/09 12:37:47;;;;;;;26.88;19.35;;;11.20;93.50;;;;;;5101332;28;20664;-76
2024/03/09 12:40:18;;;;;;;25.55;19.42;;;11.00;93.70;;;;;;5085650;28;20309;-75
2024/03/09 12:42:45;;;;;;;24.63;20.15;;;10.80;94.10;;;;;;5082951;28;20610;-76
2024/03/09 12:45:24;;;;;;;21.88;18.50;;;10.70;94.30;;;;;;5092302;28;20227;-77
2024/03/09 12:47:54;;;;;;;25.55;19.90;;;10.80;94.30;;;;;;5091529;28;20190;-76
2024/03/09 12:50:22;;;;;;;24.27;18.83;;;10.80;94.20;;;;;;5097850;28;20195;-76
2024/03/09 12:52:50;;;;;;;21.38;17.65;;;10.70;94.20;;;;;;5107392;28;20261;-77
2024/03/09 12:55:19;;;;;;;22.30;17.27;;;10.70;94.40;;;;;;5099893;28;20257;-76
2024/03/09 12:57:50;;;;;;;22.52;18.50;;;10.70;94.60;;;;;;5084816;28;20220;-77
2024/03/09 13:00:20;;;;;;;20.67;17.63;;;10.80;94.50;;;;;;5092456;28;20223;-77
2024/03/09 13:02:49;;;;;;;24.80;18.40;;;10.90;94.50;;;;;;5084894;28;20282;-75
2024/03/09 13:05:22;;;;;;;18.55;16.05;;;10.90;94.60;;;;;;5097081;28;20575;-76
2024/03/09 13:07:51;;;;;;;22.42;17.42;;;10.80;94.50;;;;;;5085831;28;20653;-74
2024/03/09 13:10:24;;;;;;;19.90;16.08;;;10.80;94.50;;;;;;5086560;28;20214;-77
2024/03/09 13:12:51;;;;;;;22.05;17.98;;;10.90;94.60;;;;;;5093110;28;20586;-76
2024/03/09 13:15:20;;;;;;;26.77;17.92;;;10.70;94.60;;;;;;5088130;28;20203;-76
2024/03/09 13:17:50;;;;;;;20.23;17.48;;;10.60;94.80;;;;;;5092229;28;20194;-76
2024/03/09 13:20:20;;;;;;;23.75;18.02;;;10.60;94.80;;;;;;5090383;28;20286;-74
2024/03/09 13:22:48;;;;;;;20.88;17.83;;;10.60;95.00;;;;;;5083069;28;20661;-75
2024/03/09 13:25:15;;;;;;;26.50;18.75;;;10.80;94.90;;;;;;5086763;28;20286;-76
2024/03/09 13:27:42;;;;;;;22.13;18.08;;;10.90;94.70;;;;;;5087638;28;20202;-78